createdAt,value
2022-09-15T00:01:58.034Z,68.28
2022-09-15T00:04:32.603Z,68.55
2022-09-15T00:07:08.225Z,68.39
2022-09-15T00:09:42.894Z,68.50
2022-09-15T00:12:17.853Z,68.19
2022-09-15T00:14:52.446Z,68.54
2022-09-15T00:17:27.400Z,68.36
2022-09-15T00:20:02.561Z,68.32
2022-09-15T00:22:38.165Z,68.17
2022-09-15T00:25:14.126Z,68.37
2022-09-15T00:27:48.626Z,68.28
2022-09-15T00:30:23.197Z,68.56
2022-09-15T00:32:57.703Z,68.36
2022-09-15T00:35:32.441Z,68.46
2022-09-15T00:38:09.474Z,69.04
2022-09-15T00:40:48.907Z,68.65
2022-09-15T00:43:43.054Z,68.63
2022-09-15T00:46:25.280Z,68.76
2022-09-15T00:49:03.170Z,68.87
2022-09-15T00:51:42.807Z,68.37
2022-09-15T00:54:23.184Z,68.60
2022-09-15T00:57:01.649Z,68.02
2022-09-15T00:59:40.231Z,68.70
2022-09-15T01:02:20.035Z,68.66
2022-09-15T01:04:58.535Z,68.84
2022-09-15T01:07:37.807Z,68.77
2022-09-15T01:10:17.189Z,68.70
2022-09-15T01:12:51.950Z,68.71
2022-09-15T01:15:45.885Z,68.69
2022-09-15T01:18:30.280Z,70.14
2022-09-15T01:21:19.064Z,71.48
2022-09-15T01:24:41.794Z,72.83
2022-09-15T01:27:49.286Z,74.00
2022-09-15T01:30:26.015Z,74.18
2022-09-15T01:33:14.286Z,74.35
2022-09-15T01:36:04.787Z,73.76
2022-09-15T01:38:51.466Z,74.53
2022-09-15T01:41:31.616Z,74.63
2022-09-15T01:44:10.555Z,74.45
2022-09-15T01:46:49.305Z,74.61
2022-09-15T01:49:26.973Z,74.70
2022-09-15T01:52:02.149Z,74.78
2022-09-15T03:50:10.176Z,87.20
2022-09-15T03:52:45.307Z,87.20
2022-09-15T03:55:19.775Z,89.46
2022-09-15T03:57:54.295Z,89.68
2022-09-15T04:00:29.055Z,90.14
2022-09-15T04:03:03.856Z,90.42
2022-09-15T04:05:39.924Z,90.05
2022-09-15T04:08:14.724Z,89.81
2022-09-15T04:10:49.364Z,90.15
2022-09-15T04:13:28.436Z,90.04
2022-09-15T04:16:08.189Z,90.70
2022-09-15T04:18:43.235Z,90.44
2022-09-15T04:21:20.709Z,89.18
2022-09-15T04:23:55.719Z,89.71
2022-09-15T04:26:33.387Z,89.73
2022-09-15T04:29:14.212Z,89.50
2022-09-15T04:31:48.884Z,90.05
2022-09-15T04:34:24.562Z,89.37
2022-09-15T04:37:02.629Z,88.00
2022-09-15T04:39:37.654Z,87.01
2022-09-15T04:42:12.065Z,87.07
2022-09-15T04:44:47.159Z,88.16
2022-09-15T04:47:21.465Z,89.16
2022-09-15T04:49:56.452Z,89.67
2022-09-15T04:52:32.312Z,89.08
2022-09-15T04:55:07.310Z,89.25
2022-09-15T04:57:41.830Z,89.62
2022-09-15T05:00:17.278Z,88.81
2022-09-15T05:02:51.787Z,88.67
2022-09-15T05:05:27.308Z,88.18
2022-09-15T05:08:03.634Z,87.75
2022-09-15T05:10:39.261Z,88.22
2022-09-15T05:13:13.482Z,88.42
2022-09-15T05:15:48.394Z,88.85
2022-09-15T05:18:22.904Z,88.20
2022-09-15T05:21:01.949Z,88.42
2022-09-15T05:23:38.516Z,87.47
2022-09-15T05:26:17.635Z,88.17
2022-09-15T05:28:51.985Z,87.81
2022-09-15T05:31:33.278Z,87.91
2022-09-15T05:34:08.096Z,88.41
2022-09-15T05:36:46.198Z,87.86
2022-09-15T05:39:22.985Z,88.01
2022-09-15T05:42:00.881Z,87.94
2022-09-15T05:44:35.297Z,87.93
2022-09-15T05:47:10.544Z,87.73
2022-09-15T05:49:45.142Z,87.93
2022-09-15T05:52:19.733Z,88.22
2022-09-15T05:55:00.898Z,88.53
2022-09-15T05:57:35.477Z,88.13
2022-09-15T06:00:14.483Z,88.14
2022-09-15T06:02:49.933Z,88.07
2022-09-15T06:05:24.471Z,87.90
2022-09-15T06:07:59.361Z,87.81
2022-09-15T06:10:39.413Z,87.56
2022-09-15T06:13:16.077Z,87.47
2022-09-15T06:15:50.388Z,87.50
2022-09-15T06:18:25.200Z,88.06
2022-09-15T06:20:59.406Z,87.37
2022-09-15T06:23:34.102Z,88.41
2022-09-15T06:26:12.480Z,87.83
2022-09-15T06:28:50.045Z,87.27
2022-09-15T06:31:25.993Z,86.99
2022-09-15T06:34:01.326Z,87.30
2022-09-15T06:36:38.175Z,86.78
2022-09-15T06:39:13.582Z,87.44
2022-09-15T06:42:05.926Z,87.13
2022-09-15T06:44:41.883Z,87.06
2022-09-15T06:47:16.640Z,86.98
2022-09-15T06:49:53.192Z,86.89
2022-09-15T06:52:27.765Z,87.22
2022-09-15T06:55:02.614Z,86.77
2022-09-15T06:57:38.373Z,86.14
2022-09-15T07:00:14.151Z,85.94
2022-09-15T07:02:50.440Z,85.95
2022-09-15T07:05:25.655Z,85.83
2022-09-15T07:08:00.118Z,85.09
2022-09-15T07:10:34.935Z,84.94
2022-09-15T07:13:10.838Z,84.77
2022-09-15T07:15:52.382Z,84.31
2022-09-15T07:18:27.863Z,84.71
2022-09-15T07:21:04.434Z,84.73
2022-09-15T07:23:38.822Z,84.21
2022-09-15T07:26:15.504Z,84.50
2022-09-15T07:28:52.636Z,84.79
2022-09-15T07:31:29.366Z,84.41
2022-09-15T07:34:04.497Z,84.08
2022-09-15T07:36:39.079Z,84.46
2022-09-15T07:39:13.467Z,83.74
2022-09-15T07:41:48.205Z,84.31
2022-09-15T07:44:24.032Z,83.12
2022-09-15T07:46:59.133Z,82.80
2022-09-15T07:49:33.425Z,82.29
2022-09-15T07:52:08.049Z,81.33
2022-09-15T07:54:42.418Z,81.52
2022-09-15T07:57:16.934Z,81.31
2022-09-15T07:59:52.895Z,81.01
2022-09-15T08:02:27.725Z,79.62
2022-09-15T08:05:02.444Z,80.08
2022-09-15T08:07:36.715Z,79.74
2022-09-15T08:10:11.628Z,80.02
2022-09-15T08:12:45.978Z,79.59
2022-09-15T08:15:22.479Z,79.70
2022-09-15T08:17:56.888Z,78.73
2022-09-15T08:20:32.267Z,78.80
2022-09-15T08:23:06.911Z,77.96
2022-09-15T08:25:41.688Z,77.10
2022-09-15T08:28:15.987Z,77.27
2022-09-15T08:30:59.933Z,76.00
2022-09-15T08:33:35.489Z,73.88
2022-09-15T08:36:11.993Z,75.13
2022-09-15T08:38:47.719Z,73.65
2022-09-15T08:41:28.794Z,73.20
2022-09-15T08:44:12.279Z,72.13
2022-09-15T08:46:52.464Z,72.71
2022-09-15T08:49:49.937Z,72.81
2022-09-15T08:52:29.759Z,72.69
2022-09-15T08:55:08.280Z,72.66
2022-09-15T08:57:43.036Z,72.79
2022-09-15T09:00:19.157Z,71.67
2022-09-15T09:03:29.036Z,72.42
2022-09-15T09:06:14.653Z,73.58
2022-09-15T09:09:03.784Z,73.27
2022-09-15T09:11:53.472Z,72.87
2022-09-15T09:14:32.403Z,72.77
2022-09-15T09:17:26.590Z,72.98
2022-09-15T09:20:25.976Z,73.11
2022-09-15T09:23:02.933Z,73.65
2022-09-15T09:25:38.753Z,72.84
2022-09-15T09:28:25.333Z,72.65
2022-09-15T09:31:06.645Z,72.74
2022-09-15T09:33:47.984Z,72.99
2022-09-15T09:36:24.294Z,73.74
2022-09-15T09:38:59.153Z,73.16
2022-09-15T09:41:36.883Z,73.40
2022-09-15T09:44:15.268Z,72.46
2022-09-15T09:46:50.474Z,71.39
2022-09-15T09:49:25.595Z,70.50
2022-09-15T09:52:04.790Z,69.32
2022-09-15T09:54:39.876Z,69.59
2022-09-15T09:57:29.404Z,68.08
2022-09-15T10:00:04.922Z,66.66
2022-09-15T10:02:48.469Z,64.98
2022-09-15T10:05:23.811Z,63.55
2022-09-15T10:08:03.963Z,62.91
2022-09-15T10:10:38.487Z,62.21
2022-09-15T10:13:13.093Z,62.57
2022-09-15T10:15:54.658Z,62.17
2022-09-15T10:18:33.023Z,62.60
2022-09-15T10:21:11.158Z,62.13
2022-09-15T10:23:46.912Z,61.64
2022-09-15T10:26:32.161Z,59.96
2022-09-15T10:29:15.411Z,59.85
2022-09-15T10:31:50.563Z,60.28
2022-09-15T10:34:27.867Z,59.58
2022-09-15T10:37:26.856Z,58.47
2022-09-15T10:40:19.705Z,59.12
2022-09-15T10:43:00.485Z,58.23
2022-09-15T10:45:39.418Z,57.61
2022-09-15T10:48:32.786Z,58.63
2022-09-15T10:51:17.796Z,58.12
2022-09-15T10:54:13.909Z,56.81
2022-09-15T10:56:53.422Z,56.52
2022-09-15T10:59:39.728Z,57.48
2022-09-15T11:02:33.940Z,56.69
2022-09-15T11:05:24.224Z,57.60
2022-09-15T11:08:22.895Z,57.72
2022-09-15T11:11:05.368Z,57.67
2022-09-15T11:13:56.087Z,58.03
2022-09-15T11:16:49.143Z,58.12
2022-09-15T11:19:37.020Z,56.89
2022-09-15T11:22:15.725Z,57.83
2022-09-15T11:24:52.775Z,57.41
2022-09-15T11:27:31.054Z,58.12
2022-09-15T11:30:17.218Z,57.74
2022-09-15T11:32:59.911Z,59.42
2022-09-15T11:35:43.088Z,59.68
2022-09-15T11:38:40.571Z,59.31
2022-09-15T11:41:31.042Z,59.75
2022-09-15T11:44:17.234Z,60.08
2022-09-15T11:47:17.707Z,60.34
2022-09-15T11:49:57.150Z,60.93
2022-09-15T11:52:44.085Z,60.99
2022-09-15T11:55:26.009Z,61.51
2022-09-15T11:58:16.381Z,61.84
2022-09-15T12:00:56.961Z,62.29
2022-09-15T12:03:38.969Z,62.84
2022-09-15T12:06:19.687Z,64.30
2022-09-15T12:09:00.903Z,63.95
2022-09-15T12:11:37.968Z,64.08
2022-09-15T12:14:17.154Z,63.91
2022-09-15T12:16:52.077Z,64.03
2022-09-15T12:19:42.669Z,63.94
2022-09-15T12:22:24.835Z,63.32
2022-09-15T12:25:04.491Z,64.23
2022-09-15T12:27:39.351Z,64.30
2022-09-15T12:30:43.969Z,64.04
2022-09-15T12:33:45.563Z,64.51
2022-09-15T12:36:43.010Z,64.20
2022-09-15T12:39:24.382Z,64.21
2022-09-15T12:42:09.548Z,64.34
2022-09-15T12:44:47.786Z,64.39
2022-09-15T12:47:28.514Z,64.90
2022-09-15T12:50:10.357Z,64.95
2022-09-15T12:52:50.636Z,64.58
2022-09-15T12:55:28.010Z,64.98
2022-09-15T12:58:09.103Z,64.37
2022-09-15T13:01:13.859Z,64.97
2022-09-15T13:04:24.810Z,63.93
2022-09-15T13:07:34.877Z,64.30
2022-09-15T13:10:40.155Z,64.74
2022-09-15T13:13:24.193Z,64.29
2022-09-15T13:15:59.359Z,65.05
2022-09-15T13:18:35.177Z,65.03
2022-09-15T13:21:15.730Z,65.06
2022-09-15T13:23:54.167Z,64.60
2022-09-15T13:26:31.785Z,64.38
2022-09-15T13:29:07.584Z,63.43
2022-09-15T13:31:49.699Z,64.33
2022-09-15T13:35:10.948Z,64.59
2022-09-15T13:38:23.022Z,65.42
2022-09-15T13:41:20.920Z,65.61
2022-09-15T13:44:35.439Z,64.61
2022-09-15T13:47:23.671Z,64.32
2022-09-15T13:50:12.378Z,64.27
2022-09-15T13:53:14.396Z,63.46
2022-09-15T13:55:49.206Z,63.48
2022-09-15T14:01:24.201Z,63.27
2022-09-15T14:04:01.052Z,63.50
2022-09-15T14:06:38.295Z,64.06
2022-09-15T14:09:17.544Z,63.90
2022-09-15T14:11:54.279Z,64.50
2022-09-15T14:14:37.550Z,64.44
2022-09-15T14:17:22.602Z,64.69
2022-09-15T14:19:59.182Z,65.05
2022-09-15T14:22:34.884Z,64.94
2022-09-15T14:25:16.690Z,65.30
2022-09-15T14:27:52.881Z,65.79
2022-09-15T14:30:32.403Z,66.41
2022-09-15T14:33:07.921Z,68.03
2022-09-15T14:35:42.511Z,70.83
2022-09-15T14:38:24.771Z,73.53
2022-09-15T14:41:01.736Z,76.59
2022-09-15T14:43:39.301Z,78.46
2022-09-15T14:46:15.311Z,79.03
2022-09-15T14:48:50.815Z,79.70
2022-09-15T14:51:28.653Z,80.02
2022-09-15T14:54:04.790Z,80.60
2022-09-15T14:56:43.690Z,81.11
2022-09-15T14:59:22.895Z,83.60
2022-09-15T15:02:06.719Z,84.79
2022-09-15T15:04:46.394Z,85.20
2022-09-15T15:07:26.084Z,85.88
2022-09-15T15:10:03.713Z,86.38
2022-09-15T15:12:42.765Z,86.29
2022-09-15T15:15:18.036Z,85.72
2022-09-15T15:17:54.864Z,85.77
2022-09-15T15:20:31.642Z,85.77
2022-09-15T15:23:16.645Z,86.72
2022-09-15T15:25:51.325Z,86.59
2022-09-15T15:28:34.049Z,87.25
2022-09-15T15:31:15.691Z,87.37
2022-09-15T15:33:53.217Z,87.15
2022-09-15T15:36:31.089Z,86.49
2022-09-15T15:39:07.620Z,86.61
2022-09-15T15:41:43.328Z,87.94
2022-09-15T15:44:28.190Z,87.24
2022-09-15T15:47:03.956Z,87.01
2022-09-15T15:49:46.303Z,86.20
2022-09-15T15:52:31.606Z,86.98
2022-09-15T15:55:07.081Z,87.37
2022-09-15T15:57:41.807Z,87.48
2022-09-15T16:00:23.086Z,87.83
2022-09-15T16:02:57.918Z,88.41
2022-09-15T16:05:32.972Z,88.08
2022-09-15T16:08:13.570Z,88.45
2022-09-15T16:10:52.117Z,88.42
2022-09-15T16:13:26.890Z,88.37
2022-09-15T16:16:01.882Z,87.69
2022-09-15T16:18:36.220Z,87.70
2022-09-15T16:21:17.388Z,88.28
2022-09-15T16:23:53.546Z,89.13
2022-09-15T16:26:27.851Z,88.88
2022-09-15T16:29:02.668Z,90.05
2022-09-15T16:31:37.543Z,90.11
2022-09-15T16:34:17.723Z,89.75
2022-09-15T16:36:51.789Z,89.44
2022-09-15T16:39:27.505Z,89.90
2022-09-15T16:42:01.659Z,89.92
2022-09-15T16:44:37.208Z,89.46
2022-09-15T16:47:11.260Z,89.26
2022-09-15T16:49:45.584Z,89.13
2022-09-15T16:52:21.813Z,88.97
2022-09-15T16:54:57.865Z,88.36
2022-09-15T16:57:32.225Z,88.84
2022-09-15T17:00:07.736Z,89.45
2022-09-15T17:02:41.980Z,89.08
2022-09-15T17:05:19.779Z,88.19
2022-09-15T17:07:54.197Z,87.63
2022-09-15T17:10:30.269Z,87.61
2022-09-15T17:13:04.809Z,88.00
2022-09-15T17:15:40.977Z,88.06
2022-09-15T17:18:16.546Z,87.53
2022-09-15T17:20:51.849Z,87.35
2022-09-15T17:23:28.686Z,86.61
2022-09-15T17:26:07.295Z,86.78
2022-09-15T17:28:42.319Z,86.99
2022-09-15T17:31:18.824Z,86.69
2022-09-15T17:33:53.499Z,86.51
2022-09-15T17:36:27.900Z,87.01
2022-09-15T17:39:02.022Z,85.96
2022-09-15T17:41:38.744Z,86.72
2022-09-15T17:44:12.838Z,85.35
2022-09-15T17:46:47.316Z,86.57
2022-09-15T17:49:22.238Z,85.70
2022-09-15T17:51:56.704Z,85.93
2022-09-15T17:54:31.351Z,85.85
2022-09-15T17:57:07.368Z,86.15
2022-09-15T17:59:41.686Z,86.89
2022-09-15T18:02:19.627Z,86.89
2022-09-15T18:04:54.153Z,86.16
2022-09-15T18:07:28.212Z,86.10
2022-09-15T18:10:03.880Z,86.03
2022-09-15T18:12:41.795Z,86.88
2022-09-15T18:15:21.178Z,84.67
2022-09-15T18:17:57.196Z,82.91
2022-09-15T18:20:34.164Z,82.56
2022-09-15T18:23:11.415Z,82.77
2022-09-15T18:25:47.534Z,83.82
2022-09-15T18:28:22.972Z,83.43
2022-09-15T18:30:57.592Z,84.34
2022-09-15T18:33:31.950Z,85.52
2022-09-15T18:36:08.265Z,85.13
2022-09-15T18:38:42.444Z,85.25
2022-09-15T18:41:17.343Z,85.63
2022-09-15T18:43:52.799Z,85.67
2022-09-15T18:46:27.289Z,85.04
2022-09-15T18:49:02.876Z,85.39
2022-09-15T18:51:51.303Z,85.36
2022-09-15T18:54:26.160Z,85.70
2022-09-15T18:57:00.841Z,86.00
2022-09-15T18:59:36.640Z,85.71
2022-09-15T19:02:14.448Z,86.06
2022-09-15T19:04:49.407Z,85.95
2022-09-15T19:07:28.201Z,86.00
2022-09-15T19:10:02.638Z,86.12
2022-09-15T19:12:39.494Z,85.80
2022-09-15T19:15:15.324Z,85.43
2022-09-15T19:17:49.683Z,85.30
2022-09-15T19:20:24.137Z,85.30
2022-09-15T19:22:58.584Z,83.98
2022-09-15T19:25:32.739Z,82.45
2022-09-15T19:28:07.172Z,83.07
2022-09-15T19:30:42.902Z,82.44
2022-09-15T19:33:17.697Z,82.64
2022-09-15T19:36:04.904Z,83.83
2022-09-15T19:38:46.848Z,84.38
2022-09-15T19:41:21.039Z,85.05
2022-09-15T19:43:55.855Z,83.42
2022-09-15T19:46:31.636Z,84.46
2022-09-15T19:49:06.572Z,84.09
2022-09-15T19:51:40.960Z,83.67
2022-09-15T19:54:15.383Z,84.34
2022-09-15T19:56:49.504Z,84.75
2022-09-15T19:59:57.722Z,84.91
2022-09-15T20:02:32.823Z,85.21
2022-09-15T20:08:02.143Z,84.67
2022-09-15T20:10:39.777Z,86.91
2022-09-15T20:13:14.379Z,86.49
2022-09-15T20:16:09.129Z,86.33
2022-09-15T20:18:43.293Z,85.59
2022-09-15T20:21:32.564Z,85.97
2022-09-15T20:24:07.343Z,87.07
2022-09-15T20:26:41.971Z,87.29
2022-09-15T20:29:16.034Z,88.02
2022-09-15T20:31:51.880Z,87.90
2022-09-15T20:34:25.877Z,88.44
2022-09-15T20:37:00.342Z,88.24
2022-09-15T20:39:35.434Z,88.59
2022-09-15T20:42:09.833Z,88.34
2022-09-15T20:44:43.813Z,87.87
2022-09-15T20:47:19.474Z,87.14
2022-09-15T20:49:54.061Z,87.95
2022-09-15T20:52:35.882Z,88.96
2022-09-15T20:55:12.249Z,88.85
2022-09-15T20:57:46.717Z,89.30
2022-09-15T21:00:21.319Z,90.05
2022-09-15T21:02:57.103Z,89.25
2022-09-15T21:05:31.173Z,89.39
2022-09-15T21:08:05.565Z,89.22
2022-09-15T21:10:40.237Z,88.37
2022-09-15T21:13:14.544Z,89.35
2022-09-15T21:15:53.723Z,89.35
2022-09-15T21:18:33.945Z,88.81
2022-09-15T21:21:10.126Z,88.71
2022-09-15T21:23:45.817Z,88.88
2022-09-15T21:26:21.837Z,89.32
2022-09-15T21:28:57.650Z,89.30
2022-09-15T21:31:33.644Z,89.33
2022-09-15T21:34:09.394Z,88.06
2022-09-15T21:36:43.601Z,88.17
2022-09-15T21:39:18.006Z,87.05
2022-09-15T21:41:52.118Z,88.00
2022-09-15T21:44:26.669Z,89.72
2022-09-15T21:47:00.750Z,88.94
2022-09-15T21:49:36.729Z,89.65
2022-09-15T21:52:10.805Z,88.63
2022-09-15T21:54:45.116Z,88.21
2022-09-15T21:57:19.229Z,87.49
2022-09-15T21:59:54.803Z,87.70
2022-09-15T22:02:28.882Z,87.25
2022-09-15T22:05:04.756Z,88.47
2022-09-15T22:07:40.400Z,89.20
2022-09-15T22:10:14.907Z,88.51
2022-09-15T22:12:48.953Z,88.27
2022-09-15T22:15:23.995Z,88.96
2022-09-15T22:17:58.167Z,89.25
2022-09-15T22:20:33.945Z,89.06
2022-09-15T22:23:08.019Z,89.59
2022-09-15T22:25:42.440Z,89.95
2022-09-15T22:28:16.478Z,90.18
2022-09-15T22:30:50.850Z,91.17
2022-09-15T22:33:24.976Z,91.65
2022-09-15T22:36:00.925Z,90.28
2022-09-15T22:38:34.969Z,90.04
2022-09-15T22:41:12.152Z,89.74
2022-09-15T22:43:48.690Z,91.21
2022-09-15T22:46:23.020Z,90.12
2022-09-15T22:48:57.102Z,89.65
2022-09-15T22:51:32.801Z,89.11
2022-09-15T22:54:07.001Z,89.55
2022-09-15T22:56:41.351Z,89.79
2022-09-15T22:59:15.534Z,90.73
2022-09-15T23:01:50.011Z,89.06
2022-09-15T23:04:24.095Z,89.01
2022-09-15T23:06:59.862Z,88.79
2022-09-15T23:09:34.348Z,88.91
2022-09-15T23:12:10.026Z,89.26
2022-09-15T23:14:44.070Z,89.59
2022-09-15T23:17:18.393Z,88.81
2022-09-15T23:19:52.846Z,89.82
2022-09-15T23:22:28.621Z,90.25
2022-09-15T23:25:02.653Z,90.19
2022-09-15T23:27:37.136Z,89.89
2022-09-15T23:30:12.810Z,90.26
2022-09-15T23:32:47.239Z,90.63
2022-09-15T23:35:21.505Z,91.02
2022-09-15T23:37:57.200Z,91.26
2022-09-15T23:40:33.185Z,91.05
2022-09-15T23:43:07.478Z,91.49
2022-09-15T23:45:42.916Z,91.66
2022-09-15T23:48:17.398Z,91.60
2022-09-15T23:50:51.460Z,91.66
2022-09-15T23:53:27.218Z,90.76
2022-09-15T23:56:01.256Z,90.68
